Time,TemperatureF,DewpointF,PressureIn,WindDirection,WindDirectionDegrees,WindSpeedMPH,WindSpeedGustMPH,Humidity,HourlyPrecipIn,Conditions,Clouds,dailyrainin,SoftwareType,DateUTC
2017-02-19 00:02:00,69.5,67.1,30.01,SSW,199,1.0,2.0,92,0.00,,---,0.00,VWS V15.00,2017-02-19 05:02:00,
2017-02-19 00:07:00,69.6,67.2,30.01,SSW,206,4.0,4.0,92,0.00,,---,0.00,VWS V15.00,2017-02-19 05:07:00,
2017-02-19 00:12:00,69.7,67.6,30.01,SSW,203,2.0,3.0,93,0.00,,---,0.00,VWS V15.00,2017-02-19 05:12:00,
2017-02-19 00:17:00,69.9,67.8,30.00,SSW,200,3.0,5.0,93,0.00,,---,0.00,VWS V15.00,2017-02-19 05:17:00,
2017-02-19 00:22:00,70.0,67.9,30.00,SSW,195,6.0,6.0,93,0.00,,---,0.00,VWS V15.00,2017-02-19 05:22:00,
2017-02-19 00:27:00,70.1,68.0,30.00,SW,227,3.0,4.0,93,0.00,,---,0.00,VWS V15.00,2017-02-19 05:27:00,
2017-02-19 00:32:00,70.1,68.0,30.00,SSW,197,4.0,5.0,93,0.00,,---,0.00,VWS V15.00,2017-02-19 05:32:00,
2017-02-19 00:37:00,70.1,68.0,30.00,SSW,211,4.0,5.0,93,0.00,,---,0.00,VWS V15.00,2017-02-19 05:37:00,
2017-02-19 00:42:00,70.1,68.0,30.00,SW,219,2.0,2.0,93,0.00,,---,0.00,VWS V15.00,2017-02-19 05:42:00,
2017-02-19 00:47:00,70.0,67.9,30.00,SSW,193,3.0,5.0,93,0.00,,---,0.00,VWS V15.00,2017-02-19 05:47:00,
2017-02-19 00:52:00,70.1,68.0,30.00,SSW,208,1.0,3.0,93,0.00,,---,0.00,VWS V15.00,2017-02-19 05:52:00,
2017-02-19 00:57:00,70.0,67.9,30.00,SSW,211,0.0,3.0,93,0.00,,---,0.00,VWS V15.00,2017-02-19 05:57:00,
2017-02-19 01:02:00,69.9,67.8,30.00,SW,223,0.0,2.0,93,0.00,,---,0.00,VWS V15.00,2017-02-19 06:02:00,
2017-02-19 01:07:00,69.9,67.8,30.00,SW,223,1.0,2.0,93,0.00,,---,0.00,VWS V15.00,2017-02-19 06:07:00,
2017-02-19 01:12:00,69.9,67.8,30.00,SW,224,2.0,2.0,93,0.00,,---,0.00,VWS V15.00,2017-02-19 06:12:00,
2017-02-19 01:17:00,69.8,67.7,30.00,SW,226,0.0,1.0,93,0.00,,---,0.00,VWS V15.00,2017-02-19 06:17:00,
2017-02-19 01:22:00,69.8,67.7,30.00,SW,218,2.0,3.0,93,0.00,,---,0.00,VWS V15.00,2017-02-19 06:22:00,
2017-02-19 01:27:00,69.7,67.6,30.00,SSW,210,2.0,3.0,93,0.00,,---,0.00,VWS V15.00,2017-02-19 06:27:00,
2017-02-19 01:32:00,69.6,67.5,30.00,SW,218,0.0,1.0,93,0.00,,---,0.00,VWS V15.00,2017-02-19 06:32:00,
2017-02-19 01:37:00,69.6,67.8,30.00,SW,235,0.0,3.0,94,0.00,,---,0.00,VWS V15.00,2017-02-19 06:37:00,
2017-02-19 01:42:00,69.6,67.8,30.00,SW,223,0.0,2.0,94,0.00,,---,0.00,VWS V15.00,2017-02-19 06:42:00,
2017-02-19 01:47:00,69.6,67.8,30.00,SW,222,1.0,2.0,94,0.00,,---,0.00,VWS V15.00,2017-02-19 06:47:00,
2017-02-19 01:52:00,69.5,67.7,30.00,SW,215,0.0,0.0,94,0.00,,---,0.00,VWS V15.00,2017-02-19 06:52:00,
2017-02-19 01:57:00,69.5,67.7,30.00,SW,222,1.0,2.0,94,0.00,,---,0.00,VWS V15.00,2017-02-19 06:57:00,
2017-02-19 02:03:00,69.5,67.7,30.00,SW,222,0.0,1.0,94,0.00,,---,0.00,VWS V15.00,2017-02-19 07:03:00,
2017-02-19 02:08:00,69.4,67.6,30.00,SW,222,1.0,1.0,94,0.00,,---,0.00,VWS V15.00,2017-02-19 07:08:00,
2017-02-19 02:13:00,69.4,67.6,30.00,SW,222,0.0,1.0,94,0.00,,---,0.00,VWS V15.00,2017-02-19 07:13:00,
2017-02-19 02:18:00,69.3,67.5,30.00,SW,222,0.0,2.0,94,0.00,,---,0.00,VWS V15.00,2017-02-19 07:18:00,
2017-02-19 02:23:00,69.4,67.6,30.00,SW,222,0.0,0.0,94,0.00,,---,0.00,VWS V15.00,2017-02-19 07:23:00,
2017-02-19 02:28:00,69.4,67.6,30.00,SW,222,0.0,1.0,94,0.00,,---,0.00,VWS V15.00,2017-02-19 07:28:00,
2017-02-19 02:33:00,69.4,67.6,30.00,SW,222,0.0,0.0,94,0.00,,---,0.00,VWS V15.00,2017-02-19 07:33:00,
2017-02-19 02:38:00,69.5,67.7,30.00,SW,222,0.0,0.0,94,0.00,,---,0.00,VWS V15.00,2017-02-19 07:38:00,
2017-02-19 02:43:00,69.5,67.7,30.00,SW,222,0.0,0.0,94,0.00,,---,0.00,VWS V15.00,2017-02-19 07:43:00,
2017-02-19 02:48:00,69.5,67.7,30.00,SW,222,0.0,0.0,94,0.00,,---,0.00,VWS V15.00,2017-02-19 07:48:00,
2017-02-19 02:53:00,69.5,67.7,30.00,SW,222,0.0,1.0,94,0.00,,---,0.00,VWS V15.00,2017-02-19 07:53:00,
2017-02-19 02:58:00,69.5,67.7,30.00,SW,222,0.0,1.0,94,0.00,,---,0.00,VWS V15.00,2017-02-19 07:58:00,
2017-02-19 03:03:00,69.5,67.7,30.00,SW,222,0.0,1.0,94,0.00,,---,0.00,VWS V15.00,2017-02-19 08:03:00,
2017-02-19 03:08:00,69.4,67.6,30.00,SW,222,0.0,1.0,94,0.00,,---,0.00,VWS V15.00,2017-02-19 08:08:00,
2017-02-19 03:13:00,69.5,67.7,30.00,SW,222,0.0,0.0,94,0.00,,---,0.00,VWS V15.00,2017-02-19 08:13:00,
2017-02-19 03:18:00,69.5,67.7,30.00,SW,225,0.0,1.0,94,0.00,,---,0.00,VWS V15.00,2017-02-19 08:18:00,
2017-02-19 03:23:00,69.5,67.7,30.00,SW,225,0.0,1.0,94,0.00,,---,0.00,VWS V15.00,2017-02-19 08:23:00,
2017-02-19 03:28:00,69.4,67.6,30.00,SW,225,0.0,1.0,94,0.00,,---,0.00,VWS V15.00,2017-02-19 08:28:00,
2017-02-19 03:33:00,69.4,67.6,30.00,SW,225,0.0,1.0,94,0.00,,---,0.00,VWS V15.00,2017-02-19 08:33:00,
2017-02-19 03:38:00,69.3,67.5,30.00,SW,225,0.0,0.0,94,0.00,,---,0.00,VWS V15.00,2017-02-19 08:38:00,
2017-02-19 03:43:00,69.2,67.4,30.00,SW,225,0.0,0.0,94,0.00,,---,0.00,VWS V15.00,2017-02-19 08:43:00,
2017-02-19 03:48:00,69.3,67.5,30.00,SW,226,0.0,2.0,94,0.00,,---,0.00,VWS V15.00,2017-02-19 08:48:00,
2017-02-19 03:53:00,69.3,67.5,30.00,SW,226,0.0,1.0,94,0.00,,---,0.00,VWS V15.00,2017-02-19 08:53:00,
2017-02-19 03:58:00,69.3,67.5,30.00,SW,227,0.0,0.0,94,0.00,,---,0.00,VWS V15.00,2017-02-19 08:58:00,
2017-02-19 04:08:00,69.3,67.5,30.00,SW,226,0.0,0.0,94,0.00,,---,0.00,VWS V15.00,2017-02-19 09:08:00,
2017-02-19 04:11:00,69.2,67.4,30.00,SW,226,0.0,1.0,94,0.00,,---,0.00,VWS V15.00,2017-02-19 09:11:00,
2017-02-19 04:16:00,69.2,67.4,30.00,SW,226,0.0,1.0,94,0.00,,---,0.00,VWS V15.00,2017-02-19 09:16:00,
2017-02-19 04:21:00,69.1,67.3,30.00,SW,226,0.0,2.0,94,0.00,,---,0.00,VWS V15.00,2017-02-19 09:21:00,
2017-02-19 04:26:00,69.1,67.3,30.00,SW,226,0.0,1.0,94,0.00,,---,0.00,VWS V15.00,2017-02-19 09:26:00,
2017-02-19 04:31:00,69.2,67.4,30.00,SW,227,0.0,2.0,94,0.00,,---,0.00,VWS V15.00,2017-02-19 09:31:00,
2017-02-19 04:36:00,69.2,67.4,30.00,SW,228,0.0,3.0,94,0.00,,---,0.00,VWS V15.00,2017-02-19 09:36:00,
2017-02-19 04:41:00,69.2,67.4,30.00,SW,228,0.0,1.0,94,0.00,,---,0.00,VWS V15.00,2017-02-19 09:41:00,
2017-02-19 04:46:00,69.2,67.4,30.00,SW,228,0.0,1.0,94,0.00,,---,0.00,VWS V15.00,2017-02-19 09:46:00,
2017-02-19 04:51:00,69.3,67.5,30.00,SW,229,0.0,2.0,94,0.00,,---,0.00,VWS V15.00,2017-02-19 09:51:00,
2017-02-19 04:56:00,69.3,67.5,30.01,SW,229,0.0,2.0,94,0.00,,---,0.00,VWS V15.00,2017-02-19 09:56:00,
2017-02-19 05:01:00,69.3,67.5,30.01,SW,227,0.0,2.0,94,0.00,,---,0.00,VWS V15.00,2017-02-19 10:01:00,
2017-02-19 05:06:00,69.4,67.6,30.01,WSW,249,0.0,3.0,94,0.00,,---,0.00,VWS V15.00,2017-02-19 10:06:00,
2017-02-19 05:11:00,69.4,67.6,30.00,WSW,249,0.0,1.0,94,0.00,,---,0.00,VWS V15.00,2017-02-19 10:11:00,
2017-02-19 05:16:00,69.3,67.5,30.01,WSW,249,0.0,1.0,94,0.00,,---,0.00,VWS V15.00,2017-02-19 10:16:00,
2017-02-19 05:21:00,69.3,67.5,30.01,WSW,249,0.0,0.0,94,0.00,,---,0.00,VWS V15.00,2017-02-19 10:21:00,
2017-02-19 05:26:00,69.2,67.4,30.01,WSW,249,1.0,2.0,94,0.00,,---,0.00,VWS V15.00,2017-02-19 10:26:00,
2017-02-19 05:31:00,69.2,67.4,30.01,WSW,249,0.0,1.0,94,0.00,,---,0.00,VWS V15.00,2017-02-19 10:31:00,
2017-02-19 05:36:00,69.1,67.3,30.01,WSW,249,0.0,0.0,94,0.00,,---,0.00,VWS V15.00,2017-02-19 10:36:00,
2017-02-19 05:41:00,69.1,67.3,30.02,WSW,249,0.0,0.0,94,0.00,,---,0.00,VWS V15.00,2017-02-19 10:41:00,
2017-02-19 05:46:00,69.1,67.3,30.01,WSW,249,0.0,0.0,94,0.00,,---,0.00,VWS V15.00,2017-02-19 10:46:00,
2017-02-19 05:51:00,68.9,67.1,30.02,WSW,249,0.0,0.0,94,0.00,,---,0.00,VWS V15.00,2017-02-19 10:51:00,
2017-02-19 05:56:00,68.8,67.0,30.02,WSW,249,0.0,0.0,94,0.00,,---,0.00,VWS V15.00,2017-02-19 10:56:00,
2017-02-19 06:01:00,68.7,66.9,30.02,WSW,249,0.0,0.0,94,0.00,,---,0.00,VWS V15.00,2017-02-19 11:01:00,
2017-02-19 06:06:00,68.6,66.8,30.02,WSW,249,0.0,0.0,94,0.00,,---,0.00,VWS V15.00,2017-02-19 11:06:00,
2017-02-19 06:11:00,68.5,66.7,30.02,WSW,249,0.0,0.0,94,0.00,,---,0.00,VWS V15.00,2017-02-19 11:11:00,
2017-02-19 06:16:00,68.4,66.6,30.02,WSW,249,0.0,0.0,94,0.00,,---,0.00,VWS V15.00,2017-02-19 11:16:00,
2017-02-19 06:21:00,68.2,66.4,30.02,WSW,249,0.0,0.0,94,0.00,,---,0.00,VWS V15.00,2017-02-19 11:21:00,
2017-02-19 06:26:00,68.3,66.5,30.02,WSW,249,0.0,0.0,94,0.00,,---,0.00,VWS V15.00,2017-02-19 11:26:00,
2017-02-19 06:31:00,68.2,66.4,30.02,WSW,249,0.0,0.0,94,0.00,,---,0.00,VWS V15.00,2017-02-19 11:31:00,
2017-02-19 06:36:00,68.2,66.4,30.03,WSW,249,0.0,0.0,94,0.00,,---,0.00,VWS V15.00,2017-02-19 11:36:00,
2017-02-19 06:41:00,68.3,66.8,30.03,WSW,249,0.0,1.0,95,0.00,,---,0.00,VWS V15.00,2017-02-19 11:41:00,
2017-02-19 06:46:00,68.2,66.7,30.03,WSW,249,1.0,2.0,95,0.00,,---,0.00,VWS V15.00,2017-02-19 11:46:00,
2017-02-19 06:51:00,68.3,66.8,30.02,WSW,244,0.0,3.0,95,0.00,,---,0.00,VWS V15.00,2017-02-19 11:51:00,
2017-02-19 06:56:00,68.4,66.6,30.03,WSW,237,1.0,3.0,94,0.00,,---,0.00,VWS V15.00,2017-02-19 11:56:00,
2017-02-19 07:01:00,68.6,66.8,30.03,SW,230,1.0,4.0,94,0.00,,---,0.00,VWS V15.00,2017-02-19 12:01:00,
2017-02-19 07:06:00,68.7,66.9,30.03,SW,223,0.0,4.0,94,0.00,,---,0.00,VWS V15.00,2017-02-19 12:06:00,
2017-02-19 07:11:00,68.8,67.3,30.03,SW,217,0.0,4.0,95,0.00,,---,0.00,VWS V15.00,2017-02-19 12:11:00,
2017-02-19 07:16:00,68.8,67.3,30.03,SW,215,1.0,3.0,95,0.00,,---,0.00,VWS V15.00,2017-02-19 12:16:00,
2017-02-19 07:21:00,68.8,67.3,30.03,SW,229,0.0,3.0,95,0.00,,---,0.00,VWS V15.00,2017-02-19 12:21:00,
2017-02-19 07:26:00,68.8,67.3,30.04,SW,230,0.0,2.0,95,0.00,,---,0.00,VWS V15.00,2017-02-19 12:26:00,
2017-02-19 07:31:00,68.9,67.4,30.04,WSW,241,0.0,3.0,95,0.00,,---,0.00,VWS V15.00,2017-02-19 12:31:00,
2017-02-19 07:36:00,69.0,67.5,30.04,SW,234,0.0,3.0,95,0.00,,---,0.00,VWS V15.00,2017-02-19 12:36:00,
2017-02-19 07:41:00,69.1,67.6,30.05,West,265,0.0,4.0,95,0.00,,---,0.00,VWS V15.00,2017-02-19 12:41:00,
2017-02-19 07:46:00,69.2,67.7,30.05,West,265,0.0,1.0,95,0.00,,---,0.00,VWS V15.00,2017-02-19 12:46:00,
2017-02-19 07:51:00,69.2,67.7,30.05,West,265,0.0,1.0,95,0.00,,---,0.00,VWS V15.00,2017-02-19 12:51:00,
2017-02-19 07:56:00,69.4,67.9,30.05,West,267,0.0,1.0,95,0.00,,---,0.00,VWS V15.00,2017-02-19 12:56:00,
2017-02-19 08:01:00,69.6,68.1,30.06,West,267,1.0,2.0,95,0.00,,---,0.00,VWS V15.00,2017-02-19 13:01:00,
2017-02-19 08:06:00,69.7,68.2,30.06,West,267,0.0,3.0,95,0.00,,---,0.00,VWS V15.00,2017-02-19 13:06:00,
2017-02-19 08:11:00,69.7,68.2,30.06,WSW,257,0.0,3.0,95,0.00,,---,0.00,VWS V15.00,2017-02-19 13:11:00,
2017-02-19 08:16:00,69.9,68.4,30.05,West,263,0.0,2.0,95,0.00,,---,0.00,VWS V15.00,2017-02-19 13:16:00,
2017-02-19 08:21:00,70.0,68.5,30.06,WSW,249,0.0,2.0,95,0.00,,---,0.00,VWS V15.00,2017-02-19 13:21:00,
2017-02-19 08:26:00,70.1,68.6,30.06,West,277,0.0,3.0,95,0.00,,---,0.00,VWS V15.00,2017-02-19 13:26:00,
2017-02-19 08:31:00,70.4,68.9,30.06,WNW,299,0.0,3.0,95,0.00,,---,0.00,VWS V15.00,2017-02-19 13:31:00,
2017-02-19 08:36:00,70.6,69.1,30.06,West,275,0.0,3.0,95,0.00,,---,0.00,VWS V15.00,2017-02-19 13:36:00,
2017-02-19 08:41:00,70.7,69.2,30.06,WNW,290,3.0,4.0,95,0.00,,---,0.00,VWS V15.00,2017-02-19 13:41:00,
2017-02-19 08:46:00,70.9,69.4,30.06,WNW,289,0.0,4.0,95,0.00,,---,0.00,VWS V15.00,2017-02-19 13:46:00,
2017-02-19 09:01:00,71.1,69.6,30.07,WNW,289,3.0,5.0,95,0.00,,---,0.00,VWS V15.00,2017-02-19 14:01:00,
2017-02-19 09:06:00,71.1,69.3,30.07,NW,306,2.0,5.0,94,0.00,,---,0.00,VWS V15.00,2017-02-19 14:06:00,
2017-02-19 09:11:00,71.2,69.4,30.07,WNW,290,2.0,6.0,94,0.00,,---,0.00,VWS V15.00,2017-02-19 14:11:00,
2017-02-19 09:16:00,71.2,69.4,30.08,NW,306,2.0,4.0,94,0.00,,---,0.00,VWS V15.00,2017-02-19 14:16:00,
2017-02-19 09:21:00,71.3,69.5,30.08,WNW,290,3.0,5.0,94,0.00,,---,0.00,VWS V15.00,2017-02-19 14:21:00,
2017-02-19 09:26:00,71.5,69.7,30.08,WNW,303,1.0,4.0,94,0.00,,---,0.00,VWS V15.00,2017-02-19 14:26:00,
2017-02-19 09:31:00,71.5,69.7,30.08,WNW,296,3.0,4.0,94,0.00,,---,0.00,VWS V15.00,2017-02-19 14:31:00,
2017-02-19 09:36:00,71.6,69.8,30.08,WNW,300,4.0,4.0,94,0.00,,---,0.00,VWS V15.00,2017-02-19 14:36:00,
2017-02-19 09:41:00,71.5,69.7,30.08,NW,318,0.0,4.0,94,0.00,,---,0.00,VWS V15.00,2017-02-19 14:41:00,
2017-02-19 09:46:00,71.5,69.7,30.08,NW,319,0.0,3.0,94,0.00,,---,0.00,VWS V15.00,2017-02-19 14:46:00,
2017-02-19 09:51:00,71.8,70.0,30.08,NNW,336,1.0,4.0,94,0.00,,---,0.00,VWS V15.00,2017-02-19 14:51:00,
2017-02-19 09:56:00,71.9,70.1,30.08,WNW,292,3.0,5.0,94,0.00,,---,0.00,VWS V15.00,2017-02-19 14:56:00,
2017-02-19 10:01:00,72.3,70.5,30.08,NW,307,5.0,5.0,94,0.00,,---,0.00,VWS V15.00,2017-02-19 15:01:00,
2017-02-19 10:06:00,72.4,70.6,30.09,WNW,301,3.0,5.0,94,0.00,,---,0.00,VWS V15.00,2017-02-19 15:06:00,
2017-02-19 10:11:00,72.6,70.8,30.09,NW,315,0.0,6.0,94,0.00,,---,0.00,VWS V15.00,2017-02-19 15:11:00,
2017-02-19 10:16:00,72.9,71.1,30.09,North,10,4.0,4.0,94,0.00,,---,0.00,VWS V15.00,2017-02-19 15:16:00,
2017-02-19 10:21:00,73.1,71.3,30.08,NNW,342,3.0,6.0,94,0.00,,---,0.00,VWS V15.00,2017-02-19 15:21:00,
2017-02-19 10:26:00,73.3,71.2,30.08,NW,311,2.0,5.0,93,0.00,,---,0.00,VWS V15.00,2017-02-19 15:26:00,
2017-02-19 10:31:00,73.6,71.5,30.08,NW,325,0.0,5.0,93,0.00,,---,0.00,VWS V15.00,2017-02-19 15:31:00,
2017-02-19 10:36:00,74.0,71.8,30.08,NNW,347,2.0,6.0,93,0.00,,---,0.00,VWS V15.00,2017-02-19 15:36:00,
2017-02-19 10:41:00,74.3,71.8,30.08,WNW,292,2.0,5.0,92,0.00,,---,0.00,VWS V15.00,2017-02-19 15:41:00,
2017-02-19 10:46:00,74.6,71.8,30.08,NW,308,3.0,7.0,91,0.00,,---,0.00,VWS V15.00,2017-02-19 15:46:00,
2017-02-19 10:56:00,75.5,71.7,30.08,WNW,300,3.0,8.0,88,0.00,,---,0.00,VWS V15.00,2017-02-19 15:56:00,
2017-02-19 11:01:00,75.6,71.1,30.08,West,280,8.0,9.0,86,0.00,,---,0.00,VWS V15.00,2017-02-19 16:01:00,
2017-02-19 11:06:00,75.8,71.0,30.08,WNW,294,7.0,9.0,85,0.00,,---,0.00,VWS V15.00,2017-02-19 16:06:00,
2017-02-19 11:11:00,76.1,70.9,30.08,WNW,284,7.0,10.0,84,0.00,,---,0.00,VWS V15.00,2017-02-19 16:11:00,
2017-02-19 11:16:00,76.7,71.2,30.08,WNW,293,5.0,8.0,83,0.00,,---,0.00,VWS V15.00,2017-02-19 16:16:00,
2017-02-19 11:21:00,76.9,70.6,30.07,NNW,344,5.0,9.0,81,0.00,,---,0.00,VWS V15.00,2017-02-19 16:21:00,
2017-02-19 11:27:00,76.8,70.2,30.07,West,264,1.0,4.0,80,0.00,,---,0.00,VWS V15.00,2017-02-19 16:27:00,
2017-02-19 11:32:00,76.9,70.3,30.07,WNW,295,5.0,7.0,80,0.00,,---,0.00,VWS V15.00,2017-02-19 16:32:00,
2017-02-19 11:37:00,77.0,70.0,30.07,WNW,298,5.0,7.0,79,0.00,,---,0.00,VWS V15.00,2017-02-19 16:37:00,
2017-02-19 11:42:00,77.2,70.2,30.07,WNW,285,3.0,8.0,79,0.00,,---,0.00,VWS V15.00,2017-02-19 16:42:00,
2017-02-19 11:47:00,76.9,69.2,30.07,NW,311,7.0,7.0,77,0.00,,---,0.00,VWS V15.00,2017-02-19 16:47:00,
2017-02-19 11:52:00,77.2,69.1,30.07,WNW,292,6.0,8.0,76,0.00,,---,0.00,VWS V15.00,2017-02-19 16:52:00,
2017-02-19 11:57:00,77.4,69.6,30.07,WNW,290,3.0,7.0,77,0.00,,---,0.00,VWS V15.00,2017-02-19 16:57:00,
2017-02-19 12:02:00,77.4,69.2,30.06,West,272,5.0,10.0,76,0.00,,---,0.00,VWS V15.00,2017-02-19 17:02:00,
2017-02-19 12:07:00,77.8,70.0,30.06,WNW,292,10.0,10.0,77,0.00,,---,0.00,VWS V15.00,2017-02-19 17:07:00,
2017-02-19 12:12:00,77.7,69.5,30.06,West,271,8.0,9.0,76,0.00,,---,0.00,VWS V15.00,2017-02-19 17:12:00,
2017-02-19 12:17:00,77.5,69.3,30.06,WNW,297,4.0,7.0,76,0.00,,---,0.00,VWS V15.00,2017-02-19 17:17:00,
2017-02-19 12:22:00,77.8,69.6,30.06,WNW,293,8.0,9.0,76,0.00,,---,0.00,VWS V15.00,2017-02-19 17:22:00,
2017-02-19 12:27:00,78.4,69.4,30.05,West,263,2.0,5.0,74,0.00,,---,0.00,VWS V15.00,2017-02-19 17:27:00,
2017-02-19 12:32:00,78.5,69.5,30.05,NW,305,6.0,9.0,74,0.00,,---,0.00,VWS V15.00,2017-02-19 17:32:00,
2017-02-19 12:37:00,78.1,69.5,30.05,SSW,202,4.0,9.0,75,0.00,,---,0.00,VWS V15.00,2017-02-19 17:37:00,
2017-02-19 12:42:00,78.7,69.7,30.05,SSW,205,4.0,6.0,74,0.00,,---,0.00,VWS V15.00,2017-02-19 17:42:00,
2017-02-19 12:47:00,78.8,69.4,30.05,WNW,293,3.0,7.0,73,0.00,,---,0.00,VWS V15.00,2017-02-19 17:47:00,
2017-02-19 12:52:00,79.2,69.8,30.05,WNW,291,5.0,8.0,73,0.00,,---,0.00,VWS V15.00,2017-02-19 17:52:00,
2017-02-19 12:57:00,79.3,69.9,30.04,WNW,300,9.0,10.0,73,0.00,,---,0.00,VWS V15.00,2017-02-19 17:57:00,
2017-02-19 13:02:00,79.1,69.7,30.04,WNW,292,7.0,9.0,73,0.00,,---,0.00,VWS V15.00,2017-02-19 18:02:00,
2017-02-19 13:07:00,79.3,69.9,30.04,NW,312,3.0,8.0,73,0.00,,---,0.00,VWS V15.00,2017-02-19 18:07:00,
2017-02-19 13:13:00,79.3,69.5,30.04,WNW,292,5.0,7.0,72,0.00,,---,0.00,VWS V15.00,2017-02-19 18:13:00,
2017-02-19 13:18:00,79.0,69.6,30.03,WNW,297,7.0,8.0,73,0.00,,---,0.00,VWS V15.00,2017-02-19 18:18:00,
2017-02-19 13:23:00,78.7,69.3,30.03,NW,318,8.0,8.0,73,0.00,,---,0.00,VWS V15.00,2017-02-19 18:23:00,
2017-02-19 13:25:00,78.8,69.4,30.03,WNW,301,5.0,9.0,73,0.00,,---,0.00,VWS V15.00,2017-02-19 18:25:00,
2017-02-19 13:30:00,79.3,69.5,30.03,NW,304,6.0,8.0,72,0.00,,---,0.00,VWS V15.00,2017-02-19 18:30:00,
2017-02-19 13:35:00,79.4,69.2,30.03,WNW,289,7.0,11.0,71,0.00,,---,0.00,VWS V15.00,2017-02-19 18:35:00,
2017-02-19 13:40:00,80.0,69.8,30.02,WNW,286,8.0,11.0,71,0.00,,---,0.00,VWS V15.00,2017-02-19 18:40:00,
2017-02-19 13:45:00,80.3,69.6,30.02,WNW,294,7.0,12.0,70,0.00,,---,0.00,VWS V15.00,2017-02-19 18:45:00,
2017-02-19 13:50:00,80.1,69.9,30.02,WNW,291,7.0,8.0,71,0.00,,---,0.00,VWS V15.00,2017-02-19 18:50:00,
2017-02-19 13:55:00,80.2,69.5,30.02,WNW,290,9.0,10.0,70,0.00,,---,0.00,VWS V15.00,2017-02-19 18:55:00,
2017-02-19 14:00:00,79.9,69.7,30.02,NW,306,5.0,12.0,71,0.00,,---,0.00,VWS V15.00,2017-02-19 19:00:00,
2017-02-19 14:05:00,80.0,69.3,30.02,WNW,303,8.0,12.0,70,0.00,,---,0.00,VWS V15.00,2017-02-19 19:05:00,
2017-02-19 14:10:00,80.2,69.5,30.02,WNW,292,4.0,10.0,70,0.00,,---,0.00,VWS V15.00,2017-02-19 19:10:00,
2017-02-19 14:12:00,80.1,69.4,30.02,WNW,297,5.0,11.0,70,0.00,,---,0.00,VWS V15.00,2017-02-19 19:12:00,
2017-02-19 14:18:00,79.8,69.2,30.02,NW,308,5.0,12.0,70,0.00,,---,0.00,VWS V15.00,2017-02-19 19:18:00,
2017-02-19 14:23:00,79.9,69.7,30.02,NW,309,6.0,13.0,71,0.00,,---,0.00,VWS V15.00,2017-02-19 19:23:00,
2017-02-19 14:28:00,80.1,69.9,30.02,West,281,4.0,7.0,71,0.00,,---,0.00,VWS V15.00,2017-02-19 19:28:00,
2017-02-19 14:33:00,80.4,69.7,30.02,WNW,295,5.0,7.0,70,0.00,,---,0.00,VWS V15.00,2017-02-19 19:33:00,
2017-02-19 14:38:00,80.5,69.8,30.02,WNW,298,9.0,10.0,70,0.00,,---,0.00,VWS V15.00,2017-02-19 19:38:00,
2017-02-19 14:43:00,80.4,69.3,30.02,WNW,298,13.0,13.0,69,0.00,,---,0.00,VWS V15.00,2017-02-19 19:43:00,
2017-02-19 14:48:00,80.5,69.4,30.02,West,265,2.0,7.0,69,0.00,,---,0.00,VWS V15.00,2017-02-19 19:48:00,
2017-02-19 14:53:00,80.5,69.8,30.01,WNW,285,6.0,9.0,70,0.00,,---,0.00,VWS V15.00,2017-02-19 19:53:00,
2017-02-19 14:58:00,80.4,69.3,30.01,NW,308,7.0,10.0,69,0.00,,---,0.00,VWS V15.00,2017-02-19 19:58:00,
2017-02-19 15:03:00,80.7,70.0,30.01,WNW,298,4.0,7.0,70,0.00,,---,0.00,VWS V15.00,2017-02-19 20:03:00,
2017-02-19 15:08:00,81.4,69.8,30.01,WNW,293,7.0,9.0,68,0.00,,---,0.00,VWS V15.00,2017-02-19 20:08:00,
2017-02-19 15:13:00,81.1,70.0,30.01,West,271,8.0,9.0,69,0.00,,---,0.00,VWS V15.00,2017-02-19 20:13:00,
2017-02-19 15:18:00,81.1,70.0,30.01,WNW,287,5.0,9.0,69,0.00,,---,0.00,VWS V15.00,2017-02-19 20:18:00,
2017-02-19 15:23:00,80.4,69.7,30.01,NW,304,7.0,12.0,70,0.00,,---,0.00,VWS V15.00,2017-02-19 20:23:00,
2017-02-19 15:28:00,80.5,69.8,30.01,WNW,301,6.0,11.0,70,0.00,,---,0.00,VWS V15.00,2017-02-19 20:28:00,
2017-02-19 15:33:00,80.0,70.2,30.01,WNW,286,4.0,10.0,72,0.00,,---,0.00,VWS V15.00,2017-02-19 20:33:00,
2017-02-19 15:38:00,79.8,69.6,30.01,WNW,294,5.0,10.0,71,0.00,,---,0.00,VWS V15.00,2017-02-19 20:38:00,
2017-02-19 15:43:00,79.6,67.7,30.01,NW,304,6.0,10.0,67,0.00,,---,0.00,VWS V15.00,2017-02-19 20:43:00,
2017-02-19 15:48:00,80.0,68.9,30.01,West,274,3.0,8.0,69,0.00,,---,0.00,VWS V15.00,2017-02-19 20:48:00,
2017-02-19 15:53:00,80.4,68.9,30.01,West,275,3.0,11.0,68,0.00,,---,0.00,VWS V15.00,2017-02-19 20:53:00,
2017-02-19 15:58:00,80.4,68.9,30.01,West,277,5.0,9.0,68,0.00,,---,0.00,VWS V15.00,2017-02-19 20:58:00,
2017-02-19 16:03:00,79.9,68.8,30.01,WNW,294,5.0,10.0,69,0.00,,---,0.00,VWS V15.00,2017-02-19 21:03:00,
2017-02-19 16:08:00,79.9,69.2,30.01,WNW,288,6.0,9.0,70,0.00,,---,0.00,VWS V15.00,2017-02-19 21:08:00,
2017-02-19 16:13:00,79.7,68.6,30.01,WNW,290,7.0,11.0,69,0.00,,---,0.00,VWS V15.00,2017-02-19 21:13:00,
2017-02-19 16:18:00,79.8,69.2,30.01,WNW,289,5.0,8.0,70,0.00,,---,0.00,VWS V15.00,2017-02-19 21:18:00,
2017-02-19 16:23:00,79.8,69.2,30.01,West,273,3.0,9.0,70,0.00,,---,0.00,VWS V15.00,2017-02-19 21:23:00,
2017-02-19 16:28:00,79.8,68.7,30.01,NW,304,4.0,9.0,69,0.00,,---,0.00,VWS V15.00,2017-02-19 21:28:00,
2017-02-19 16:33:00,79.8,68.7,30.01,NW,309,7.0,7.0,69,0.00,,---,0.00,VWS V15.00,2017-02-19 21:33:00,
2017-02-19 16:38:00,79.8,69.2,30.01,WNW,284,6.0,8.0,70,0.00,,---,0.00,VWS V15.00,2017-02-19 21:38:00,
2017-02-19 16:43:00,79.5,68.9,30.01,NNW,328,5.0,8.0,70,0.00,,---,0.00,VWS V15.00,2017-02-19 21:43:00,
2017-02-19 16:49:00,79.4,68.3,30.01,WNW,286,6.0,9.0,69,0.00,,---,0.00,VWS V15.00,2017-02-19 21:49:00,
2017-02-19 16:54:00,79.5,68.9,30.01,NW,309,5.0,9.0,70,0.00,,---,0.00,VWS V15.00,2017-02-19 21:54:00,
2017-02-19 16:59:00,79.2,68.6,30.01,WNW,296,6.0,8.0,70,0.00,,---,0.00,VWS V15.00,2017-02-19 21:59:00,
2017-02-19 17:04:00,79.2,67.7,30.01,WNW,289,5.0,8.0,68,0.00,,---,0.00,VWS V15.00,2017-02-19 22:04:00,
2017-02-19 17:09:00,79.3,68.3,30.01,WNW,298,7.0,10.0,69,0.00,,---,0.00,VWS V15.00,2017-02-19 22:09:00,
2017-02-19 17:14:00,79.3,68.3,30.02,NW,311,5.0,7.0,69,0.00,,---,0.00,VWS V15.00,2017-02-19 22:14:00,
2017-02-19 17:19:00,79.0,68.0,30.02,WNW,300,4.0,9.0,69,0.00,,---,0.00,VWS V15.00,2017-02-19 22:19:00,
2017-02-19 17:24:00,78.9,67.9,30.02,West,281,4.0,7.0,69,0.00,,---,0.00,VWS V15.00,2017-02-19 22:24:00,
2017-02-19 17:26:00,78.9,67.9,30.02,WNW,298,6.0,7.0,69,0.00,,---,0.00,VWS V15.00,2017-02-19 22:26:00,
2017-02-19 17:31:00,78.7,67.7,30.02,West,277,5.0,8.0,69,0.00,,---,0.00,VWS V15.00,2017-02-19 22:31:00,
2017-02-19 17:36:00,78.4,67.4,30.02,WNW,284,6.0,9.0,69,0.00,,---,0.00,VWS V15.00,2017-02-19 22:36:00,
2017-02-19 17:41:00,78.0,67.0,30.02,West,279,3.0,9.0,69,0.00,,---,0.00,VWS V15.00,2017-02-19 22:41:00,
2017-02-19 17:46:00,77.7,67.1,30.02,West,276,4.0,8.0,70,0.00,,---,0.00,VWS V15.00,2017-02-19 22:46:00,
2017-02-19 17:51:00,77.3,67.2,30.02,West,279,2.0,2.0,71,0.00,,---,0.00,VWS V15.00,2017-02-19 22:51:00,
2017-02-19 17:56:00,77.1,67.0,30.03,WNW,287,3.0,8.0,71,0.00,,---,0.00,VWS V15.00,2017-02-19 22:56:00,
2017-02-19 18:01:00,76.8,67.1,30.03,WNW,298,3.0,8.0,72,0.00,,---,0.00,VWS V15.00,2017-02-19 23:01:00,
2017-02-19 18:06:00,76.5,66.8,30.03,WNW,298,3.0,7.0,72,0.00,,---,0.00,VWS V15.00,2017-02-19 23:06:00,
2017-02-19 18:11:00,76.2,66.5,30.03,WNW,284,8.0,9.0,72,0.00,,---,0.00,VWS V15.00,2017-02-19 23:11:00,
2017-02-19 18:16:00,76.0,66.3,30.03,NW,315,4.0,9.0,72,0.00,,---,0.00,VWS V15.00,2017-02-19 23:16:00,
2017-02-19 18:21:00,75.7,66.4,30.03,WNW,296,4.0,6.0,73,0.00,,---,0.00,VWS V15.00,2017-02-19 23:21:00,
2017-02-19 18:26:00,75.5,66.6,30.03,WNW,294,7.0,7.0,74,0.00,,---,0.00,VWS V15.00,2017-02-19 23:26:00,
2017-02-19 18:31:00,75.2,66.3,30.03,West,268,8.0,8.0,74,0.00,,---,0.00,VWS V15.00,2017-02-19 23:31:00,
2017-02-19 18:36:00,75.0,66.6,30.03,WNW,285,3.0,8.0,75,0.00,,---,0.00,VWS V15.00,2017-02-19 23:36:00,
2017-02-19 18:41:00,74.8,66.3,30.03,WNW,293,4.0,7.0,75,0.00,,---,0.00,VWS V15.00,2017-02-19 23:41:00,
2017-02-19 18:46:00,74.6,66.2,30.03,WNW,292,3.0,6.0,75,0.00,,---,0.00,VWS V15.00,2017-02-19 23:46:00,
2017-02-19 18:51:00,74.4,66.0,30.04,WNW,294,5.0,7.0,75,0.00,,---,0.00,VWS V15.00,2017-02-19 23:51:00,
2017-02-19 18:56:00,74.3,65.9,30.04,NW,319,4.0,7.0,75,0.00,,---,0.00,VWS V15.00,2017-02-19 23:56:00,
2017-02-19 19:01:00,74.2,66.2,30.04,WNW,302,6.0,7.0,76,0.00,,---,0.00,VWS V15.00,2017-02-20 00:01:00,
2017-02-19 19:06:00,74.0,66.0,30.04,NW,305,2.0,6.0,76,0.00,,---,0.00,VWS V15.00,2017-02-20 00:06:00,
2017-02-19 19:11:00,73.9,65.9,30.04,WNW,282,3.0,6.0,76,0.00,,---,0.00,VWS V15.00,2017-02-20 00:11:00,
2017-02-19 19:16:00,73.7,66.1,30.04,WNW,296,4.0,5.0,77,0.00,,---,0.00,VWS V15.00,2017-02-20 00:16:00,
2017-02-19 19:21:00,73.6,66.3,30.04,WNW,292,3.0,4.0,78,0.00,,---,0.00,VWS V15.00,2017-02-20 00:21:00,
2017-02-19 19:26:00,73.3,66.0,30.04,NW,304,2.0,5.0,78,0.00,,---,0.00,VWS V15.00,2017-02-20 00:26:00,
2017-02-19 19:31:00,73.1,66.2,30.04,NW,308,4.0,5.0,79,0.00,,---,0.00,VWS V15.00,2017-02-20 00:31:00,
2017-02-19 19:36:00,73.0,66.1,30.04,NW,315,2.0,6.0,79,0.00,,---,0.00,VWS V15.00,2017-02-20 00:36:00,
2017-02-19 19:41:00,72.9,66.0,30.04,NW,310,4.0,6.0,79,0.00,,---,0.00,VWS V15.00,2017-02-20 00:41:00,
2017-02-19 19:46:00,72.8,65.6,30.04,NW,304,2.0,6.0,78,0.00,,---,0.00,VWS V15.00,2017-02-20 00:46:00,
2017-02-19 19:51:00,72.8,65.9,30.05,WNW,301,4.0,6.0,79,0.00,,---,0.00,VWS V15.00,2017-02-20 00:51:00,
2017-02-19 19:56:00,72.6,65.7,30.05,NW,312,0.0,5.0,79,0.00,,---,0.00,VWS V15.00,2017-02-20 00:56:00,
2017-02-19 20:01:00,72.3,65.4,30.05,WNW,284,3.0,4.0,79,0.00,,---,0.00,VWS V15.00,2017-02-20 01:01:00,
2017-02-19 20:06:00,72.0,65.1,30.05,West,280,1.0,4.0,79,0.00,,---,0.00,VWS V15.00,2017-02-20 01:06:00,
2017-02-19 20:11:00,71.7,64.8,30.05,WNW,298,0.0,4.0,79,0.00,,---,0.00,VWS V15.00,2017-02-20 01:11:00,
2017-02-19 20:16:00,71.4,64.6,30.06,WNW,285,2.0,5.0,79,0.00,,---,0.00,VWS V15.00,2017-02-20 01:16:00,
2017-02-19 20:21:00,71.3,65.2,30.06,WNW,300,2.0,3.0,81,0.00,,---,0.00,VWS V15.00,2017-02-20 01:21:00,
2017-02-19 20:26:00,71.2,65.1,30.06,NW,317,2.0,4.0,81,0.00,,---,0.00,VWS V15.00,2017-02-20 01:26:00,
2017-02-19 20:31:00,71.0,64.9,30.06,WNW,299,1.0,3.0,81,0.00,,---,0.00,VWS V15.00,2017-02-20 01:31:00,
2017-02-19 20:36:00,70.8,64.7,30.06,WNW,300,1.0,3.0,81,0.00,,---,0.00,VWS V15.00,2017-02-20 01:36:00,
2017-02-19 20:41:00,70.5,64.4,30.07,WNW,301,0.0,0.0,81,0.00,,---,0.00,VWS V15.00,2017-02-20 01:41:00,
2017-02-19 20:46:00,70.3,64.2,30.07,WNW,282,3.0,3.0,81,0.00,,---,0.00,VWS V15.00,2017-02-20 01:46:00,
2017-02-19 20:52:00,70.2,64.4,30.07,WNW,301,2.0,3.0,82,0.00,,---,0.00,VWS V15.00,2017-02-20 01:52:00,
2017-02-19 20:57:00,70.2,64.8,30.07,WNW,284,2.0,4.0,83,0.00,,---,0.00,VWS V15.00,2017-02-20 01:57:00,
2017-02-19 21:02:00,70.2,64.8,30.08,WNW,300,4.0,4.0,83,0.00,,---,0.00,VWS V15.00,2017-02-20 02:02:00,
2017-02-19 21:07:00,70.2,64.8,30.08,NW,311,4.0,4.0,83,0.00,,---,0.00,VWS V15.00,2017-02-20 02:07:00,
2017-02-19 21:12:00,70.2,64.8,30.08,WNW,293,3.0,4.0,83,0.00,,---,0.00,VWS V15.00,2017-02-20 02:12:00,
2017-02-19 21:17:00,70.2,65.1,30.08,WNW,299,2.0,5.0,84,0.00,,---,0.00,VWS V15.00,2017-02-20 02:17:00,
2017-02-19 21:22:00,70.1,65.1,30.08,NW,312,2.0,3.0,84,0.00,,---,0.00,VWS V15.00,2017-02-20 02:22:00,
2017-02-19 21:27:00,70.0,64.9,30.08,WNW,297,0.0,1.0,84,0.00,,---,0.00,VWS V15.00,2017-02-20 02:27:00,
2017-02-19 21:32:00,69.9,65.2,30.08,NW,323,0.0,1.0,85,0.00,,---,0.00,VWS V15.00,2017-02-20 02:32:00,
2017-02-19 21:37:00,69.8,65.1,30.08,NNW,332,2.0,3.0,85,0.00,,---,0.00,VWS V15.00,2017-02-20 02:37:00,
2017-02-19 21:42:00,69.7,65.0,30.08,NW,305,3.0,3.0,85,0.00,,---,0.00,VWS V15.00,2017-02-20 02:42:00,
2017-02-19 21:47:00,69.6,64.9,30.09,NW,307,0.0,0.0,85,0.00,,---,0.00,VWS V15.00,2017-02-20 02:47:00,
2017-02-19 21:52:00,69.4,65.0,30.09,NW,308,3.0,3.0,86,0.00,,---,0.00,VWS V15.00,2017-02-20 02:52:00,
2017-02-19 21:57:00,69.3,64.9,30.09,NW,311,0.0,2.0,86,0.00,,---,0.00,VWS V15.00,2017-02-20 02:57:00,
2017-02-19 22:02:00,69.1,64.7,30.08,NW,320,2.0,3.0,86,0.00,,---,0.00,VWS V15.00,2017-02-20 03:02:00,
2017-02-19 22:07:00,69.2,64.8,30.09,NW,311,2.0,4.0,86,0.00,,---,0.00,VWS V15.00,2017-02-20 03:07:00,
2017-02-19 22:12:00,69.1,64.7,30.09,NW,315,0.0,2.0,86,0.00,,---,0.00,VWS V15.00,2017-02-20 03:12:00,
2017-02-19 22:17:00,69.0,64.6,30.09,WNW,292,2.0,3.0,86,0.00,,---,0.00,VWS V15.00,2017-02-20 03:17:00,
2017-02-19 22:22:00,68.9,64.6,30.09,NW,315,1.0,4.0,86,0.00,,---,0.00,VWS V15.00,2017-02-20 03:22:00,
2017-02-19 22:27:00,68.8,64.4,30.09,NW,316,2.0,4.0,86,0.00,,---,0.00,VWS V15.00,2017-02-20 03:27:00,
2017-02-19 22:32:00,68.8,64.4,30.09,NNW,333,0.0,1.0,86,0.00,,---,0.00,VWS V15.00,2017-02-20 03:32:00,
2017-02-19 22:37:00,68.6,64.2,30.09,NW,323,2.0,4.0,86,0.00,,---,0.00,VWS V15.00,2017-02-20 03:37:00,
2017-02-19 22:42:00,68.6,63.9,30.09,NNW,339,2.0,3.0,85,0.00,,---,0.00,VWS V15.00,2017-02-20 03:42:00,
2017-02-19 22:47:00,68.7,64.0,30.08,NNW,331,2.0,3.0,85,0.00,,---,0.00,VWS V15.00,2017-02-20 03:47:00,
2017-02-19 22:52:00,68.7,64.0,30.08,NW,320,0.0,1.0,85,0.00,,---,0.00,VWS V15.00,2017-02-20 03:52:00,
2017-02-19 22:57:00,68.5,63.8,30.08,NNW,330,0.0,1.0,85,0.00,,---,0.00,VWS V15.00,2017-02-20 03:57:00,
2017-02-19 23:03:00,68.3,63.3,30.08,WNW,300,3.0,4.0,84,0.00,,---,0.00,VWS V15.00,2017-02-20 04:03:00,
2017-02-19 23:08:00,68.2,63.2,30.09,ENE,72,7.0,7.0,84,0.00,,---,0.00,VWS V15.00,2017-02-20 04:08:00,
2017-02-19 23:13:00,68.0,63.0,30.09,East,101,2.0,6.0,84,0.00,,---,0.00,VWS V15.00,2017-02-20 04:13:00,
2017-02-19 23:18:00,67.5,62.2,30.09,ESE,109,0.0,8.0,83,0.00,,---,0.00,VWS V15.00,2017-02-20 04:18:00,
2017-02-19 23:23:00,67.0,62.0,30.09,East,94,6.0,6.0,84,0.00,,---,0.00,VWS V15.00,2017-02-20 04:23:00,
2017-02-19 23:28:00,66.6,61.6,30.10,East,90,2.0,3.0,84,0.00,,---,0.00,VWS V15.00,2017-02-20 04:28:00,
2017-02-19 23:33:00,66.3,61.7,30.10,East,87,2.0,7.0,85,0.00,,---,0.00,VWS V15.00,2017-02-20 04:33:00,
2017-02-19 23:38:00,66.1,61.5,30.09,East,93,1.0,5.0,85,0.00,,---,0.00,VWS V15.00,2017-02-20 04:38:00,
2017-02-19 23:43:00,66.1,61.8,30.09,ENE,71,1.0,4.0,86,0.00,,---,0.00,VWS V15.00,2017-02-20 04:43:00,
2017-02-19 23:48:00,66.1,61.8,30.09,ENE,71,2.0,3.0,86,0.00,,---,0.00,VWS V15.00,2017-02-20 04:48:00,
2017-02-19 23:53:00,66.2,61.9,30.09,ENE,64,0.0,1.0,86,0.00,,---,0.00,VWS V15.00,2017-02-20 04:53:00,